This demonstration page uses our WeatherBlox Daily Observations layout. Learn more.

41.55636, -103.73856

Hourly Observations for April 14, 2019

Temp ( °F °C ) Dew Point ( °F °C ) Humidity (%) Winds ( mph kmh ) Pressure ( in mb ) Visibility ( mi km ) Precip ( " mm )
12:58 am 00:58 Clear 36 2.2 31 -0.3 84 84 SW 13 20 30.07 1018 10 16.0934 0 0
2:56 am 02:56 Clear 33 0.3 30 -1 91 91 SSW 14 22 30.06 1018 10 16.0934 0 0
3:56 am 03:56 Mostly Clear 32 -0.2 29 -1.6 90 90 SSW 13 20 30.03 1017 10 16.0934 0 0
4:56 am 04:56 Mostly Cloudy 32 -0.1 29 -1.4 91 91 SSW 13 20 30.01 1016 9 14.48406 0 0
5:56 am 05:56 Mostly Cloudy 32 -0.2 29 -1.8 89 89 SW 13 20 29.98 1015 10 16.0934 0 0
6:56 am 06:56 Mostly Cloudy 33 0.6 30 -1.1 89 89 SW 14 22 29.94 1014 10 16.0934 0 0
7:56 am 07:56 Clear 31 -0.3 28 -2.1 88 88 SW 15 24 29.9 1013 10 16.0934 0 0
8:56 am 08:56 Clear 31 -0.4 28 -2.1 88 88 SW 20 31 29.87 1012 10 16.0934 0 0
10:58 am 10:58 Clear 31 -0.3 27 -2.6 85 85 SW 9 15 29.84 1010 10 16.0934 0 0
11:58 am 11:58 Clear 30 -1 27 -3 86 86 SW 14 22 29.82 1010 10 16.0934 0 0
12:58 pm 12:58 Sunny 31 -0.4 26 -3.1 82 82 SW 16 26 29.81 1010 10 16.0934 0 0
1:58 pm 13:58 Sunny 35 1.6 28 -2.1 77 77 SW 14 22 29.81 1009 10 16.0934 0 0
2:58 pm 14:58 Sunny 38 3.2 30 -0.9 75 75 SW 14 22 29.78 1009 10 16.0934 0 0
3:58 pm 15:58 Mostly Cloudy 45 7 33 0.6 64 64 S 10 17 29.69 1005 10 16.0934 0 0
4:58 pm 16:58 Mostly Cloudy 49 9.2 31 -0.4 51 51 W 16 26 29.63 1003 10 16.0934 0 0
5:58 pm 17:58 Sunny 53 11.6 32 0 45 45 W 24 39 29.57 1001 10 16.0934 0 0
6:58 pm 18:58 Mostly Cloudy with Light Showers 48 8.9 34 1.3 59 59 NW 16 26 29.62 1003 10 16.0934 0 0
7:58 pm 19:58 Mostly Cloudy 51 10.3 34 1.3 54 54 NW 13 20 29.59 1002 10 16.0934 0 0
8:58 pm 20:58 Mostly Cloudy 51 10.4 31 -0.5 47 47 W 29 46 29.71 1006 10 16.0934 0 0
9:58 pm 21:58 Mostly Cloudy 55 12.5 30 -1.1 39 39 W 32 52 29.64 1004 10 16.0934 0 0

Powered by AerisWeather